createdAt,value
2023-03-08T00:03:42.121Z,48.03
2023-03-08T00:08:43.937Z,42.85
2023-03-08T00:13:45.695Z,41.55
2023-03-08T00:18:47.866Z,45.45
2023-03-08T00:23:52.627Z,44.00
2023-03-08T00:28:54.455Z,38.42
2023-03-08T00:33:56.223Z,37.95
2023-03-08T00:38:58.179Z,36.22
2023-03-08T00:43:59.824Z,38.33
2023-03-08T00:49:04.306Z,36.30
2023-03-08T00:54:06.263Z,36.42
2023-03-08T00:59:07.978Z,43.83
2023-03-08T01:04:10.159Z,46.22
2023-03-08T01:09:12.672Z,39.78
2023-03-08T01:14:14.455Z,50.22
2023-03-08T01:19:16.083Z,31.63
2023-03-08T01:24:17.691Z,27.27
2023-03-08T01:29:20.192Z,22.60
2023-03-08T01:34:21.784Z,22.63
2023-03-08T01:39:23.414Z,15.65
2023-03-08T01:44:25.060Z,16.08
2023-03-08T01:49:33.450Z,16.65
2023-03-08T01:54:47.992Z,14.00
2023-03-08T01:59:51.678Z,15.38
2023-03-08T02:04:53.709Z,13.63
2023-03-08T02:09:55.457Z,15.38
2023-03-08T02:14:57.768Z,13.65
2023-03-08T02:20:13.952Z,14.85
2023-03-08T02:25:17.205Z,15.57
2023-03-08T02:30:25.285Z,14.40
2023-03-08T02:35:29.165Z,16.23
2023-03-08T02:40:30.773Z,14.00
2023-03-08T02:45:34.128Z,17.48
2023-03-08T02:50:39.363Z,14.60
2023-03-08T02:55:42.781Z,13.02
2023-03-08T03:00:46.280Z,13.13
2023-03-08T03:05:47.957Z,11.57
2023-03-08T03:10:54.569Z,13.05
2023-03-08T03:15:56.306Z,15.07
2023-03-08T03:21:03.865Z,15.23
2023-03-08T03:26:06.536Z,15.68
2023-03-08T03:31:12.675Z,14.98
2023-03-08T03:36:17.361Z,16.17
2023-03-08T03:41:21.870Z,14.30
2023-03-08T03:46:27.486Z,17.07
2023-03-08T03:51:32.085Z,16.05
2023-03-08T03:56:58.104Z,19.83
2023-03-08T04:02:02.593Z,17.00
2023-03-08T04:07:12.868Z,17.00
2023-03-08T04:17:21.226Z,17.67
2023-03-08T04:22:26.847Z,20.23
2023-03-08T04:27:36.193Z,17.88
2023-03-08T04:32:38.121Z,19.48
2023-03-08T04:37:40.803Z,18.27
2023-03-08T04:42:46.523Z,15.93
2023-03-08T04:47:52.008Z,14.57
2023-03-08T04:52:54.905Z,15.98
2023-03-08T04:57:56.700Z,12.77
2023-03-08T05:02:59.562Z,15.82
2023-03-08T05:08:05.256Z,14.85
2023-03-08T05:13:08.798Z,13.52
2023-03-08T05:18:10.702Z,16.30
2023-03-08T05:23:13.520Z,18.40
2023-03-08T05:28:17.034Z,17.15
2023-03-08T05:33:21.124Z,16.83
2023-03-08T05:38:23.205Z,15.93
2023-03-08T05:43:24.927Z,20.08
2023-03-08T05:48:27.004Z,19.17
2023-03-08T05:53:28.793Z,16.13
2023-03-08T05:58:30.889Z,16.85
2023-03-08T06:03:34.999Z,17.10
2023-03-08T06:08:37.292Z,18.60
2023-03-08T06:13:41.717Z,22.02
2023-03-08T06:18:44.243Z,17.75
2023-03-08T06:23:49.034Z,20.58
2023-03-08T06:28:50.956Z,19.73
2023-03-08T06:33:53.179Z,22.55
2023-03-08T06:39:00.052Z,22.20
2023-03-08T06:44:02.186Z,17.85
2023-03-08T06:49:04.331Z,17.55
2023-03-08T06:54:08.128Z,19.45
2023-03-08T06:59:09.856Z,15.98
2023-03-08T07:04:11.771Z,18.25
2023-03-08T07:09:14.012Z,15.13
2023-03-08T07:14:16.294Z,17.13
2023-03-08T07:19:17.893Z,16.33
2023-03-08T07:24:19.687Z,15.32
2023-03-08T07:29:21.332Z,15.32
2023-03-08T07:34:23.138Z,16.40
2023-03-08T07:39:24.804Z,12.93
2023-03-08T07:44:26.420Z,12.68
2023-03-08T07:49:28.209Z,14.35
2023-03-08T07:54:29.974Z,13.00
2023-03-08T07:59:32.133Z,11.00
2023-03-08T08:04:35.749Z,13.57
2023-03-08T08:09:37.645Z,11.32
2023-03-08T08:14:39.265Z,11.75
2023-03-08T08:19:40.896Z,8.65
2023-03-08T08:24:42.570Z,8.80
2023-03-08T08:29:46.280Z,13.30
2023-03-08T08:34:47.952Z,10.25
2023-03-08T08:39:49.576Z,7.05
2023-03-08T08:44:53.303Z,8.18
2023-03-08T08:49:54.944Z,8.07
2023-03-08T08:54:57.902Z,8.77
2023-03-08T08:59:59.599Z,7.68
2023-03-08T09:05:01.270Z,7.95
2023-03-08T09:10:03.236Z,8.20
2023-03-08T09:15:06.220Z,7.72
2023-03-08T09:20:09.624Z,10.07
2023-03-08T09:25:12.189Z,5.65
2023-03-08T09:30:14.784Z,6.03
2023-03-08T09:35:17.164Z,7.25
2023-03-08T09:40:21.277Z,7.30
2023-03-08T09:45:29.624Z,6.15
2023-03-08T09:50:44.273Z,9.03
2023-03-08T09:55:52.821Z,6.85
2023-03-08T10:01:06.523Z,6.43
2023-03-08T10:06:44.163Z,9.05
2023-03-08T10:12:00.686Z,9.90
2023-03-08T10:17:13.001Z,7.70
2023-03-08T10:22:29.807Z,7.70
2023-03-08T10:27:34.766Z,9.07
2023-03-08T10:32:43.820Z,7.60
2023-03-08T10:37:51.003Z,8.45
2023-03-08T10:43:00.925Z,10.20
2023-03-08T10:48:04.997Z,11.05
2023-03-08T10:53:16.045Z,16.13
2023-03-08T10:58:29.701Z,14.77
2023-03-08T11:03:32.388Z,14.32
2023-03-08T11:08:39.913Z,15.63
2023-03-08T11:13:49.556Z,11.40
2023-03-08T11:19:06.618Z,17.08
2023-03-08T11:24:27.550Z,15.52
2023-03-08T11:29:29.135Z,21.38
2023-03-08T11:34:46.337Z,20.65
2023-03-08T11:40:01.307Z,23.08
2023-03-08T11:45:18.635Z,22.33
2023-03-08T11:50:30.489Z,22.30
2023-03-08T11:56:02.165Z,21.98
2023-03-08T12:01:14.942Z,21.08
2023-03-08T12:06:49.311Z,19.00
2023-03-08T12:12:03.429Z,16.27
2023-03-08T12:17:40.976Z,22.15
2023-03-08T12:22:46.006Z,22.02
2023-03-08T12:27:55.778Z,19.98
2023-03-08T12:33:00.154Z,22.08
2023-03-08T12:38:22.131Z,19.65
2023-03-08T12:43:23.718Z,19.67
2023-03-08T12:48:44.503Z,17.73
2023-03-08T12:53:49.088Z,20.13
2023-03-08T12:58:54.717Z,25.52
2023-03-08T13:03:56.645Z,17.42
2023-03-08T13:09:20.694Z,20.13
2023-03-08T13:14:38.236Z,16.85
2023-03-08T13:19:43.001Z,17.58
2023-03-08T13:24:56.389Z,18.75
2023-03-08T13:30:28.244Z,15.80
2023-03-08T13:35:29.927Z,16.17
2023-03-08T13:40:31.711Z,14.85
2023-03-08T13:45:33.398Z,15.90
2023-03-08T13:50:43.439Z,14.50
2023-03-08T13:55:47.873Z,16.85
2023-03-08T14:01:02.539Z,21.90
2023-03-08T14:06:14.765Z,19.35
2023-03-08T14:11:29.499Z,16.40
2023-03-08T14:16:34.310Z,17.73
2023-03-08T14:21:36.220Z,19.75
2023-03-08T14:26:41.047Z,16.05
2023-03-08T14:31:56.743Z,20.25
2023-03-08T14:37:03.049Z,24.67
2023-03-08T14:42:17.338Z,20.08
2023-03-08T14:47:31.170Z,18.88
2023-03-08T14:52:36.290Z,16.33
2023-03-08T14:57:38.126Z,18.55
2023-03-08T15:02:40.692Z,16.17
2023-03-08T15:07:43.736Z,18.85
2023-03-08T15:12:45.433Z,20.30
2023-03-08T15:17:47.666Z,17.95
2023-03-08T15:22:53.241Z,15.93
2023-03-08T15:27:55.203Z,19.58
2023-03-08T15:32:59.441Z,17.00
2023-03-08T15:38:01.248Z,18.70
2023-03-08T15:43:02.892Z,19.15
2023-03-08T15:48:07.148Z,20.05
2023-03-08T15:53:09.960Z,17.80
2023-03-08T15:58:12.133Z,18.90
2023-03-08T16:03:14.483Z,15.50
2023-03-08T16:08:16.105Z,14.88
2023-03-08T16:13:22.027Z,12.32
2023-03-08T16:18:23.780Z,14.25
2023-03-08T16:23:26.143Z,17.73
2023-03-08T16:28:28.581Z,17.40
2023-03-08T16:33:30.300Z,37.83
2023-03-08T16:38:32.090Z,13.65
2023-03-08T16:43:45.787Z,12.25
2023-03-08T16:48:50.263Z,11.93
2023-03-08T16:53:52.185Z,14.25
2023-03-08T16:58:55.407Z,24.55
2023-03-08T17:03:57.836Z,17.42
2023-03-08T17:08:59.624Z,14.88
2023-03-08T17:14:04.076Z,14.93
2023-03-08T17:19:07.529Z,13.00
2023-03-08T17:24:12.789Z,13.38
2023-03-08T17:29:15.100Z,13.82
2023-03-08T17:34:17.878Z,12.35
2023-03-08T17:39:19.925Z,11.15
2023-03-08T17:44:21.549Z,15.77
2023-03-08T17:49:25.015Z,14.43
2023-03-08T17:54:26.653Z,14.18
2023-03-08T17:59:28.486Z,16.27
2023-03-08T18:04:30.233Z,12.43
2023-03-08T18:09:32.427Z,17.73
2023-03-08T18:14:40.036Z,15.80
2023-03-08T18:19:42.991Z,16.60
2023-03-08T18:24:44.987Z,13.38
2023-03-08T18:29:46.669Z,17.55
2023-03-08T18:34:48.412Z,15.75
2023-03-08T18:39:54.638Z,13.65
2023-03-08T18:44:56.672Z,15.45
2023-03-08T18:49:58.309Z,12.68
2023-03-08T18:55:00.041Z,11.55
2023-03-08T19:00:03.020Z,12.15
2023-03-08T19:05:05.116Z,28.98
2023-03-08T19:10:07.058Z,31.13
2023-03-08T19:15:09.534Z,22.38
2023-03-08T19:20:11.788Z,16.20
2023-03-08T19:25:15.930Z,11.88
2023-03-08T19:30:17.927Z,14.13
2023-03-08T19:35:20.836Z,11.93
2023-03-08T19:40:22.642Z,14.32
2023-03-08T19:45:25.459Z,13.77
2023-03-08T19:50:27.822Z,13.65
2023-03-08T19:55:29.462Z,17.60
2023-03-08T20:00:31.126Z,21.38
2023-03-08T20:05:35.317Z,13.57
2023-03-08T20:10:37.404Z,9.30
2023-03-08T20:15:39.111Z,10.20
2023-03-08T20:20:40.896Z,10.30
2023-03-08T20:25:45.658Z,8.45
2023-03-08T20:30:48.349Z,11.68
2023-03-08T20:36:00.526Z,12.88
2023-03-08T20:41:12.243Z,10.60
2023-03-08T20:46:16.943Z,9.48
2023-03-08T20:51:20.911Z,6.90
2023-03-08T20:56:24.630Z,12.75
2023-03-08T21:01:32.175Z,6.30
2023-03-08T21:06:33.933Z,6.68
2023-03-08T21:11:35.668Z,9.57
2023-03-08T21:16:37.562Z,8.77
2023-03-08T21:21:41.512Z,8.68
2023-03-08T21:26:44.309Z,6.85
2023-03-08T21:31:51.446Z,8.18
2023-03-08T21:36:53.117Z,9.82
2023-03-08T21:41:57.102Z,7.47
2023-03-08T21:46:58.893Z,8.60
2023-03-08T21:52:01.175Z,7.57
2023-03-08T21:57:03.050Z,7.22
2023-03-08T22:02:04.979Z,9.23
2023-03-08T22:07:06.690Z,8.10
2023-03-08T22:12:08.682Z,6.00
2023-03-08T22:17:10.356Z,5.10
2023-03-08T22:22:12.147Z,6.93
2023-03-08T22:27:14.405Z,5.75
2023-03-08T22:32:16.108Z,5.65
2023-03-08T22:37:17.886Z,6.78
2023-03-08T22:42:19.548Z,4.70
2023-03-08T22:47:21.218Z,5.57
2023-03-08T22:52:23.546Z,5.70
2023-03-08T22:57:25.284Z,10.10
2023-03-08T23:02:28.451Z,5.22
2023-03-08T23:07:30.544Z,8.50
2023-03-08T23:12:32.329Z,6.53
2023-03-08T23:17:34.267Z,6.50
2023-03-08T23:22:35.925Z,8.48
2023-03-08T23:27:37.564Z,7.13
2023-03-08T23:32:39.503Z,5.50
2023-03-08T23:37:41.393Z,7.15
2023-03-08T23:42:43.060Z,8.43
2023-03-08T23:47:44.656Z,6.03
2023-03-08T23:52:46.401Z,6.28
2023-03-08T23:57:48.023Z,7.28
